sensor_id;sensor_type;location;lat;lon;timestamp;P1;durP1;ratioP1;P2;durP2;ratioP2
72273;SDS011;60208;48.692;8.948;2023-07-20T00:01:45;4.22;;;2.17;;
72273;SDS011;60208;48.692;8.948;2023-07-20T00:04:10;7.72;;;2.42;;
72273;SDS011;60208;48.692;8.948;2023-07-20T00:06:36;3.47;;;2.50;;
72273;SDS011;60208;48.692;8.948;2023-07-20T00:09:05;3.33;;;2.30;;
72273;SDS011;60208;48.692;8.948;2023-07-20T00:11:31;3.15;;;2.42;;
72273;SDS011;60208;48.692;8.948;2023-07-20T00:13:59;3.00;;;2.20;;
72273;SDS011;60208;48.692;8.948;2023-07-20T00:16:25;2.33;;;2.13;;
72273;SDS011;60208;48.692;8.948;2023-07-20T00:18:50;3.17;;;2.63;;
72273;SDS011;60208;48.692;8.948;2023-07-20T00:21:15;2.75;;;2.25;;
72273;SDS011;60208;48.692;8.948;2023-07-20T00:23:41;3.10;;;2.08;;
72273;SDS011;60208;48.692;8.948;2023-07-20T00:26:06;3.47;;;2.60;;
72273;SDS011;60208;48.692;8.948;2023-07-20T00:28:32;5.15;;;2.30;;
72273;SDS011;60208;48.692;8.948;2023-07-20T00:30:59;3.47;;;2.35;;
72273;SDS011;60208;48.692;8.948;2023-07-20T00:33:24;3.15;;;2.40;;
72273;SDS011;60208;48.692;8.948;2023-07-20T00:35:50;3.33;;;2.22;;
72273;SDS011;60208;48.692;8.948;2023-07-20T00:38:15;3.63;;;2.22;;
72273;SDS011;60208;48.692;8.948;2023-07-20T00:40:41;3.15;;;2.38;;
72273;SDS011;60208;48.692;8.948;2023-07-20T00:43:06;4.47;;;2.30;;
72273;SDS011;60208;48.692;8.948;2023-07-20T00:45:32;4.07;;;2.30;;
72273;SDS011;60208;48.692;8.948;2023-07-20T00:47:58;5.32;;;2.35;;
72273;SDS011;60208;48.692;8.948;2023-07-20T00:50:24;3.05;;;2.35;;
72273;SDS011;60208;48.692;8.948;2023-07-20T00:52:51;3.60;;;2.20;;
72273;SDS011;60208;48.692;8.948;2023-07-20T00:55:16;3.17;;;2.20;;
72273;SDS011;60208;48.692;8.948;2023-07-20T00:57:43;3.67;;;2.40;;
72273;SDS011;60208;48.692;8.948;2023-07-20T01:00:09;3.47;;;2.13;;
72273;SDS011;60208;48.692;8.948;2023-07-20T01:02:35;3.10;;;2.28;;
72273;SDS011;60208;48.692;8.948;2023-07-20T01:05:01;4.95;;;2.45;;
72273;SDS011;60208;48.692;8.948;2023-07-20T01:07:31;3.28;;;2.42;;
72273;SDS011;60208;48.692;8.948;2023-07-20T01:12:40;3.58;;;2.40;;
72273;SDS011;60208;48.692;8.948;2023-07-20T01:15:07;4.22;;;2.60;;
72273;SDS011;60208;48.692;8.948;2023-07-20T01:17:33;2.90;;;2.25;;
72273;SDS011;60208;48.692;8.948;2023-07-20T01:19:59;3.63;;;2.20;;
72273;SDS011;60208;48.692;8.948;2023-07-20T01:33:11;3.65;;;2.20;;
72273;SDS011;60208;48.692;8.948;2023-07-20T01:35:38;3.88;;;2.38;;
72273;SDS011;60208;48.692;8.948;2023-07-20T01:38:07;3.53;;;2.30;;
72273;SDS011;60208;48.692;8.948;2023-07-20T01:40:33;4.05;;;2.30;;
72273;SDS011;60208;48.692;8.948;2023-07-20T01:42:59;4.97;;;2.70;;
72273;SDS011;60208;48.692;8.948;2023-07-20T01:45:24;4.88;;;2.40;;
72273;SDS011;60208;48.692;8.948;2023-07-20T01:47:50;3.58;;;2.17;;
72273;SDS011;60208;48.692;8.948;2023-07-20T01:50:16;5.85;;;2.47;;
72273;SDS011;60208;48.692;8.948;2023-07-20T01:52:41;3.97;;;2.35;;
72273;SDS011;60208;48.692;8.948;2023-07-20T01:55:07;5.63;;;2.35;;
72273;SDS011;60208;48.692;8.948;2023-07-20T01:57:32;4.40;;;2.33;;
72273;SDS011;60208;48.692;8.948;2023-07-20T01:59:58;6.07;;;2.63;;
72273;SDS011;60208;48.692;8.948;2023-07-20T02:02:26;5.32;;;2.25;;
72273;SDS011;60208;48.692;8.948;2023-07-20T02:04:53;4.25;;;2.60;;
72273;SDS011;60208;48.692;8.948;2023-07-20T02:07:18;3.20;;;2.33;;
72273;SDS011;60208;48.692;8.948;2023-07-20T02:09:44;3.08;;;2.65;;
72273;SDS011;60208;48.692;8.948;2023-07-20T02:12:09;5.55;;;2.58;;
72273;SDS011;60208;48.692;8.948;2023-07-20T02:14:34;3.35;;;2.45;;
72273;SDS011;60208;48.692;8.948;2023-07-20T02:17:00;3.53;;;2.30;;
72273;SDS011;60208;48.692;8.948;2023-07-20T02:19:26;3.78;;;2.47;;
72273;SDS011;60208;48.692;8.948;2023-07-20T02:21:52;3.72;;;2.50;;
72273;SDS011;60208;48.692;8.948;2023-07-20T02:24:18;4.28;;;2.53;;
72273;SDS011;60208;48.692;8.948;2023-07-20T02:26:43;3.58;;;2.35;;
72273;SDS011;60208;48.692;8.948;2023-07-20T02:29:09;4.15;;;2.50;;
72273;SDS011;60208;48.692;8.948;2023-07-20T02:31:39;4.30;;;2.40;;
72273;SDS011;60208;48.692;8.948;2023-07-20T02:34:05;3.30;;;2.10;;
72273;SDS011;60208;48.692;8.948;2023-07-20T02:36:31;10.50;;;2.55;;
72273;SDS011;60208;48.692;8.948;2023-07-20T02:38:59;4.22;;;2.58;;
72273;SDS011;60208;48.692;8.948;2023-07-20T02:41:27;4.32;;;2.42;;
72273;SDS011;60208;48.692;8.948;2023-07-20T02:43:52;3.03;;;2.30;;
72273;SDS011;60208;48.692;8.948;2023-07-20T02:46:17;4.05;;;2.47;;
72273;SDS011;60208;48.692;8.948;2023-07-20T02:48:43;4.47;;;2.20;;
72273;SDS011;60208;48.692;8.948;2023-07-20T02:51:08;4.47;;;2.28;;
72273;SDS011;60208;48.692;8.948;2023-07-20T02:53:34;5.18;;;2.35;;
72273;SDS011;60208;48.692;8.948;2023-07-20T02:55:59;5.00;;;2.25;;
72273;SDS011;60208;48.692;8.948;2023-07-20T02:58:25;4.55;;;2.40;;
72273;SDS011;60208;48.692;8.948;2023-07-20T03:00:50;4.60;;;2.35;;
72273;SDS011;60208;48.692;8.948;2023-07-20T03:03:15;3.25;;;2.38;;
72273;SDS011;60208;48.692;8.948;2023-07-20T03:05:41;3.67;;;2.20;;
72273;SDS011;60208;48.692;8.948;2023-07-20T03:08:06;3.90;;;2.28;;
72273;SDS011;60208;48.692;8.948;2023-07-20T03:10:32;4.00;;;2.50;;
72273;SDS011;60208;48.692;8.948;2023-07-20T03:12:57;3.42;;;2.50;;
72273;SDS011;60208;48.692;8.948;2023-07-20T03:15:23;3.28;;;2.40;;
72273;SDS011;60208;48.692;8.948;2023-07-20T03:17:48;3.45;;;2.40;;
72273;SDS011;60208;48.692;8.948;2023-07-20T03:20:14;3.85;;;2.58;;
72273;SDS011;60208;48.692;8.948;2023-07-20T03:22:39;3.15;;;2.30;;
72273;SDS011;60208;48.692;8.948;2023-07-20T03:25:06;5.28;;;2.22;;
72273;SDS011;60208;48.692;8.948;2023-07-20T03:27:32;4.50;;;2.67;;
72273;SDS011;60208;48.692;8.948;2023-07-20T03:29:57;2.65;;;2.30;;
72273;SDS011;60208;48.692;8.948;2023-07-20T03:32:22;3.35;;;2.60;;
72273;SDS011;60208;48.692;8.948;2023-07-20T03:34:48;3.55;;;2.60;;
72273;SDS011;60208;48.692;8.948;2023-07-20T03:37:13;5.07;;;2.65;;
72273;SDS011;60208;48.692;8.948;2023-07-20T03:39:39;4.53;;;2.50;;
72273;SDS011;60208;48.692;8.948;2023-07-20T03:42:04;3.83;;;2.60;;
72273;SDS011;60208;48.692;8.948;2023-07-20T03:44:31;4.50;;;2.65;;
72273;SDS011;60208;48.692;8.948;2023-07-20T03:46:56;3.05;;;2.53;;
72273;SDS011;60208;48.692;8.948;2023-07-20T03:49:22;3.08;;;2.33;;
72273;SDS011;60208;48.692;8.948;2023-07-20T03:51:47;4.90;;;2.78;;
72273;SDS011;60208;48.692;8.948;2023-07-20T03:54:13;5.55;;;2.50;;
72273;SDS011;60208;48.692;8.948;2023-07-20T03:56:38;4.35;;;2.50;;
72273;SDS011;60208;48.692;8.948;2023-07-20T03:59:04;3.58;;;2.60;;
72273;SDS011;60208;48.692;8.948;2023-07-20T04:01:30;4.55;;;2.58;;
72273;SDS011;60208;48.692;8.948;2023-07-20T04:03:55;4.07;;;2.80;;
72273;SDS011;60208;48.692;8.948;2023-07-20T04:06:21;4.35;;;2.80;;
72273;SDS011;60208;48.692;8.948;2023-07-20T04:08:46;3.90;;;2.58;;
72273;SDS011;60208;48.692;8.948;2023-07-20T04:11:14;3.13;;;2.13;;
72273;SDS011;60208;48.692;8.948;2023-07-20T04:13:40;4.88;;;2.85;;
72273;SDS011;60208;48.692;8.948;2023-07-20T04:16:05;6.85;;;3.72;;
72273;SDS011;60208;48.692;8.948;2023-07-20T04:18:31;3.75;;;2.47;;
72273;SDS011;60208;48.692;8.948;2023-07-20T04:20:56;4.85;;;2.85;;
72273;SDS011;60208;48.692;8.948;2023-07-20T04:23:22;8.60;;;2.92;;
72273;SDS011;60208;48.692;8.948;2023-07-20T04:25:47;4.40;;;2.80;;
72273;SDS011;60208;48.692;8.948;2023-07-20T04:28:12;5.53;;;2.80;;
72273;SDS011;60208;48.692;8.948;2023-07-20T04:30:38;4.43;;;2.80;;
72273;SDS011;60208;48.692;8.948;2023-07-20T04:33:05;5.50;;;2.70;;
72273;SDS011;60208;48.692;8.948;2023-07-20T04:35:47;3.85;;;2.42;;
72273;SDS011;60208;48.692;8.948;2023-07-20T04:38:14;3.25;;;2.47;;
72273;SDS011;60208;48.692;8.948;2023-07-20T04:40:46;5.30;;;2.80;;
72273;SDS011;60208;48.692;8.948;2023-07-20T04:43:13;6.15;;;2.50;;
72273;SDS011;60208;48.692;8.948;2023-07-20T04:45:39;3.33;;;2.50;;
72273;SDS011;60208;48.692;8.948;2023-07-20T04:48:11;4.85;;;2.65;;
72273;SDS011;60208;48.692;8.948;2023-07-20T04:53:03;4.20;;;2.50;;
72273;SDS011;60208;48.692;8.948;2023-07-20T04:55:28;4.95;;;2.70;;
72273;SDS011;60208;48.692;8.948;2023-07-20T04:57:54;6.18;;;2.53;;
72273;SDS011;60208;48.692;8.948;2023-07-20T05:00:20;6.68;;;2.35;;
72273;SDS011;60208;48.692;8.948;2023-07-20T05:02:46;3.60;;;2.60;;
72273;SDS011;60208;48.692;8.948;2023-07-20T05:05:14;5.85;;;2.72;;
72273;SDS011;60208;48.692;8.948;2023-07-20T05:07:40;3.35;;;2.50;;
72273;SDS011;60208;48.692;8.948;2023-07-20T05:10:05;5.57;;;2.40;;
72273;SDS011;60208;48.692;8.948;2023-07-20T05:12:31;4.97;;;2.30;;
72273;SDS011;60208;48.692;8.948;2023-07-20T05:14:57;3.97;;;2.30;;
72273;SDS011;60208;48.692;8.948;2023-07-20T05:17:22;4.03;;;2.30;;
72273;SDS011;60208;48.692;8.948;2023-07-20T05:19:48;4.07;;;2.40;;
72273;SDS011;60208;48.692;8.948;2023-07-20T05:22:13;4.60;;;2.80;;
72273;SDS011;60208;48.692;8.948;2023-07-20T05:24:39;3.20;;;2.50;;
72273;SDS011;60208;48.692;8.948;2023-07-20T05:27:05;2.78;;;2.13;;
72273;SDS011;60208;48.692;8.948;2023-07-20T05:29:30;5.53;;;2.40;;
72273;SDS011;60208;48.692;8.948;2023-07-20T05:31:56;5.88;;;2.30;;
72273;SDS011;60208;48.692;8.948;2023-07-20T05:34:22;2.78;;;2.50;;
72273;SDS011;60208;48.692;8.948;2023-07-20T05:36:47;4.47;;;2.10;;
72273;SDS011;60208;48.692;8.948;2023-07-20T05:39:13;4.00;;;2.33;;
72273;SDS011;60208;48.692;8.948;2023-07-20T05:41:38;4.32;;;2.30;;
72273;SDS011;60208;48.692;8.948;2023-07-20T05:44:03;2.47;;;2.10;;
72273;SDS011;60208;48.692;8.948;2023-07-20T05:46:29;4.63;;;2.22;;
72273;SDS011;60208;48.692;8.948;2023-07-20T05:48:54;3.38;;;1.92;;
72273;SDS011;60208;48.692;8.948;2023-07-20T05:51:19;4.13;;;1.90;;
72273;SDS011;60208;48.692;8.948;2023-07-20T05:53:45;5.57;;;2.10;;
72273;SDS011;60208;48.692;8.948;2023-07-20T05:56:10;4.65;;;1.98;;
72273;SDS011;60208;48.692;8.948;2023-07-20T05:58:36;4.30;;;2.00;;
72273;SDS011;60208;48.692;8.948;2023-07-20T06:01:03;5.03;;;2.30;;
72273;SDS011;60208;48.692;8.948;2023-07-20T06:03:30;3.40;;;2.10;;
72273;SDS011;60208;48.692;8.948;2023-07-20T06:05:59;4.78;;;2.35;;
72273;SDS011;60208;48.692;8.948;2023-07-20T06:08:26;4.28;;;2.15;;
72273;SDS011;60208;48.692;8.948;2023-07-20T06:10:51;3.47;;;2.10;;
72273;SDS011;60208;48.692;8.948;2023-07-20T06:13:17;5.25;;;2.35;;
72273;SDS011;60208;48.692;8.948;2023-07-20T06:15:42;4.10;;;2.10;;
72273;SDS011;60208;48.692;8.948;2023-07-20T06:18:08;2.72;;;2.08;;
72273;SDS011;60208;48.692;8.948;2023-07-20T06:20:34;3.90;;;2.00;;
72273;SDS011;60208;48.692;8.948;2023-07-20T06:22:59;4.18;;;2.25;;
72273;SDS011;60208;48.692;8.948;2023-07-20T06:25:25;5.50;;;2.53;;
72273;SDS011;60208;48.692;8.948;2023-07-20T06:27:54;3.10;;;2.03;;
72273;SDS011;60208;48.692;8.948;2023-07-20T06:30:20;3.30;;;2.10;;
72273;SDS011;60208;48.692;8.948;2023-07-20T06:32:45;5.60;;;2.20;;
72273;SDS011;60208;48.692;8.948;2023-07-20T06:35:11;4.05;;;2.17;;
72273;SDS011;60208;48.692;8.948;2023-07-20T06:37:37;4.50;;;1.90;;
72273;SDS011;60208;48.692;8.948;2023-07-20T06:40:03;8.55;;;2.30;;
72273;SDS011;60208;48.692;8.948;2023-07-20T06:42:29;5.13;;;1.98;;
72273;SDS011;60208;48.692;8.948;2023-07-20T06:44:56;3.20;;;2.15;;
72273;SDS011;60208;48.692;8.948;2023-07-20T06:47:22;4.75;;;2.40;;
72273;SDS011;60208;48.692;8.948;2023-07-20T06:49:47;3.33;;;2.17;;
72273;SDS011;60208;48.692;8.948;2023-07-20T06:52:13;3.50;;;2.05;;
72273;SDS011;60208;48.692;8.948;2023-07-20T06:54:38;3.47;;;2.30;;
72273;SDS011;60208;48.692;8.948;2023-07-20T06:57:04;5.28;;;2.08;;
72273;SDS011;60208;48.692;8.948;2023-07-20T06:59:30;5.03;;;1.95;;
72273;SDS011;60208;48.692;8.948;2023-07-20T07:01:55;7.22;;;2.30;;
72273;SDS011;60208;48.692;8.948;2023-07-20T07:04:21;4.60;;;2.58;;
72273;SDS011;60208;48.692;8.948;2023-07-20T07:06:47;4.90;;;2.30;;
72273;SDS011;60208;48.692;8.948;2023-07-20T07:09:13;5.93;;;2.03;;
72273;SDS011;60208;48.692;8.948;2023-07-20T07:11:38;7.15;;;2.20;;
72273;SDS011;60208;48.692;8.948;2023-07-20T07:14:04;6.68;;;2.13;;
72273;SDS011;60208;48.692;8.948;2023-07-20T07:16:30;5.00;;;2.20;;
72273;SDS011;60208;48.692;8.948;2023-07-20T07:18:55;3.83;;;2.17;;
72273;SDS011;60208;48.692;8.948;2023-07-20T07:21:20;5.97;;;2.30;;
72273;SDS011;60208;48.692;8.948;2023-07-20T07:23:46;5.07;;;2.10;;
72273;SDS011;60208;48.692;8.948;2023-07-20T07:26:12;4.13;;;2.30;;
72273;SDS011;60208;48.692;8.948;2023-07-20T07:28:38;3.95;;;2.20;;
72273;SDS011;60208;48.692;8.948;2023-07-20T07:31:06;6.25;;;2.28;;
72273;SDS011;60208;48.692;8.948;2023-07-20T07:33:32;6.22;;;2.53;;
72273;SDS011;60208;48.692;8.948;2023-07-20T07:35:58;2.67;;;2.30;;
72273;SDS011;60208;48.692;8.948;2023-07-20T07:38:23;6.38;;;2.80;;
72273;SDS011;60208;48.692;8.948;2023-07-20T07:40:49;5.15;;;2.42;;
72273;SDS011;60208;48.692;8.948;2023-07-20T07:43:14;3.47;;;2.33;;
72273;SDS011;60208;48.692;8.948;2023-07-20T07:45:40;5.72;;;2.53;;
72273;SDS011;60208;48.692;8.948;2023-07-20T07:48:06;5.70;;;2.30;;
72273;SDS011;60208;48.692;8.948;2023-07-20T07:50:32;5.78;;;2.60;;
72273;SDS011;60208;48.692;8.948;2023-07-20T07:52:58;3.20;;;2.20;;
72273;SDS011;60208;48.692;8.948;2023-07-20T07:55:24;3.88;;;2.28;;
72273;SDS011;60208;48.692;8.948;2023-07-20T07:57:51;3.70;;;2.22;;
72273;SDS011;60208;48.692;8.948;2023-07-20T08:00:17;2.90;;;2.17;;
72273;SDS011;60208;48.692;8.948;2023-07-20T08:02:44;2.78;;;2.17;;
72273;SDS011;60208;48.692;8.948;2023-07-20T08:05:15;5.20;;;2.25;;
72273;SDS011;60208;48.692;8.948;2023-07-20T08:07:41;6.95;;;2.50;;
72273;SDS011;60208;48.692;8.948;2023-07-20T08:10:06;3.05;;;1.95;;
72273;SDS011;60208;48.692;8.948;2023-07-20T08:12:32;4.03;;;2.10;;
72273;SDS011;60208;48.692;8.948;2023-07-20T08:14:58;3.90;;;2.20;;
72273;SDS011;60208;48.692;8.948;2023-07-20T08:17:23;2.90;;;2.03;;
72273;SDS011;60208;48.692;8.948;2023-07-20T08:19:49;4.78;;;2.15;;
72273;SDS011;60208;48.692;8.948;2023-07-20T08:22:14;3.58;;;2.40;;
72273;SDS011;60208;48.692;8.948;2023-07-20T08:24:41;4.18;;;2.33;;
72273;SDS011;60208;48.692;8.948;2023-07-20T08:27:07;3.25;;;2.03;;
72273;SDS011;60208;48.692;8.948;2023-07-20T08:29:34;5.38;;;2.13;;
72273;SDS011;60208;48.692;8.948;2023-07-20T08:32:02;4.55;;;2.30;;
72273;SDS011;60208;48.692;8.948;2023-07-20T08:34:29;4.85;;;2.20;;
72273;SDS011;60208;48.692;8.948;2023-07-20T08:36:55;3.45;;;2.30;;
72273;SDS011;60208;48.692;8.948;2023-07-20T08:39:21;2.97;;;2.05;;
72273;SDS011;60208;48.692;8.948;2023-07-20T08:41:47;5.32;;;2.13;;
72273;SDS011;60208;48.692;8.948;2023-07-20T08:44:13;5.38;;;2.17;;
72273;SDS011;60208;48.692;8.948;2023-07-20T08:46:39;4.60;;;2.28;;
72273;SDS011;60208;48.692;8.948;2023-07-20T08:49:05;2.67;;;1.90;;
72273;SDS011;60208;48.692;8.948;2023-07-20T08:51:31;4.22;;;1.77;;
72273;SDS011;60208;48.692;8.948;2023-07-20T08:53:58;1.95;;;1.63;;
72273;SDS011;60208;48.692;8.948;2023-07-20T08:56:24;3.58;;;1.60;;
72273;SDS011;60208;48.692;8.948;2023-07-20T08:58:51;2.47;;;1.60;;
72273;SDS011;60208;48.692;8.948;2023-07-20T09:01:18;2.78;;;1.55;;
72273;SDS011;60208;48.692;8.948;2023-07-20T09:03:45;2.13;;;1.40;;
72273;SDS011;60208;48.692;8.948;2023-07-20T09:06:11;4.15;;;1.60;;
72273;SDS011;60208;48.692;8.948;2023-07-20T09:08:40;2.30;;;1.85;;
72273;SDS011;60208;48.692;8.948;2023-07-20T09:11:06;3.03;;;1.70;;
72273;SDS011;60208;48.692;8.948;2023-07-20T09:13:32;4.93;;;1.58;;
72273;SDS011;60208;48.692;8.948;2023-07-20T09:15:58;2.58;;;1.80;;
72273;SDS011;60208;48.692;8.948;2023-07-20T09:18:27;2.30;;;1.60;;
72273;SDS011;60208;48.692;8.948;2023-07-20T09:21:03;2.42;;;1.67;;
72273;SDS011;60208;48.692;8.948;2023-07-20T09:23:33;2.22;;;1.48;;
72273;SDS011;60208;48.692;8.948;2023-07-20T09:26:00;1.42;;;1.27;;
72273;SDS011;60208;48.692;8.948;2023-07-20T09:28:26;2.13;;;1.50;;
72273;SDS011;60208;48.692;8.948;2023-07-20T09:30:54;1.88;;;1.50;;
72273;SDS011;60208;48.692;8.948;2023-07-20T09:33:24;3.30;;;1.52;;
72273;SDS011;60208;48.692;8.948;2023-07-20T09:35:49;3.00;;;1.50;;
72273;SDS011;60208;48.692;8.948;2023-07-20T09:38:15;2.08;;;1.50;;
72273;SDS011;60208;48.692;8.948;2023-07-20T09:40:41;2.28;;;1.60;;
72273;SDS011;60208;48.692;8.948;2023-07-20T09:43:10;2.95;;;1.33;;
72273;SDS011;60208;48.692;8.948;2023-07-20T09:45:44;1.42;;;1.27;;
72273;SDS011;60208;48.692;8.948;2023-07-20T09:48:10;1.60;;;1.45;;
72273;SDS011;60208;48.692;8.948;2023-07-20T09:50:39;3.50;;;1.80;;
72273;SDS011;60208;48.692;8.948;2023-07-20T09:55:36;2.70;;;1.50;;
72273;SDS011;60208;48.692;8.948;2023-07-20T09:58:02;4.25;;;1.73;;
72273;SDS011;60208;48.692;8.948;2023-07-20T10:00:28;3.05;;;1.40;;
72273;SDS011;60208;48.692;8.948;2023-07-20T10:02:53;1.50;;;1.38;;
72273;SDS011;60208;48.692;8.948;2023-07-20T10:05:20;2.45;;;1.33;;
72273;SDS011;60208;48.692;8.948;2023-07-20T10:07:49;1.92;;;1.27;;
72273;SDS011;60208;48.692;8.948;2023-07-20T10:10:16;3.35;;;1.45;;
72273;SDS011;60208;48.692;8.948;2023-07-20T10:12:43;2.17;;;1.30;;
72273;SDS011;60208;48.692;8.948;2023-07-20T10:15:19;3.58;;;1.35;;
72273;SDS011;60208;48.692;8.948;2023-07-20T10:20:35;1.92;;;1.40;;
72273;SDS011;60208;48.692;8.948;2023-07-20T10:23:02;1.73;;;1.15;;
72273;SDS011;60208;48.692;8.948;2023-07-20T10:25:29;1.73;;;1.30;;
72273;SDS011;60208;48.692;8.948;2023-07-20T10:27:56;2.90;;;1.33;;
72273;SDS011;60208;48.692;8.948;2023-07-20T10:30:23;1.63;;;1.13;;
72273;SDS011;60208;48.692;8.948;2023-07-20T10:32:49;4.05;;;1.20;;
72273;SDS011;60208;48.692;8.948;2023-07-20T10:35:16;1.92;;;1.38;;
72273;SDS011;60208;48.692;8.948;2023-07-20T10:40:34;2.45;;;1.20;;
72273;SDS011;60208;48.692;8.948;2023-07-20T10:48:04;1.40;;;1.15;;
72273;SDS011;60208;48.692;8.948;2023-07-20T10:50:40;3.40;;;1.10;;
72273;SDS011;60208;48.692;8.948;2023-07-20T10:53:10;3.10;;;1.30;;
72273;SDS011;60208;48.692;8.948;2023-07-20T10:55:37;3.33;;;1.20;;
72273;SDS011;60208;48.692;8.948;2023-07-20T10:58:10;2.58;;;1.27;;
72273;SDS011;60208;48.692;8.948;2023-07-20T11:00:37;1.08;;;0.98;;
72273;SDS011;60208;48.692;8.948;2023-07-20T11:03:03;2.78;;;1.20;;
72273;SDS011;60208;48.692;8.948;2023-07-20T11:07:59;1.63;;;0.98;;
72273;SDS011;60208;48.692;8.948;2023-07-20T11:10:24;1.92;;;0.90;;
72273;SDS011;60208;48.692;8.948;2023-07-20T11:13:32;2.17;;;1.00;;
72273;SDS011;60208;48.692;8.948;2023-07-20T11:15:47;1.38;;;1.10;;
72273;SDS011;60208;48.692;8.948;2023-07-20T11:18:26;1.75;;;1.27;;
72273;SDS011;60208;48.692;8.948;2023-07-20T11:20:52;3.22;;;1.20;;
72273;SDS011;60208;48.692;8.948;2023-07-20T11:23:19;1.40;;;1.20;;
72273;SDS011;60208;48.692;8.948;2023-07-20T11:25:45;1.77;;;1.00;;
72273;SDS011;60208;48.692;8.948;2023-07-20T11:28:11;2.55;;;1.13;;
72273;SDS011;60208;48.692;8.948;2023-07-20T11:30:37;1.85;;;1.10;;
72273;SDS011;60208;48.692;8.948;2023-07-20T11:33:03;2.08;;;1.25;;
72273;SDS011;60208;48.692;8.948;2023-07-20T11:35:30;2.50;;;0.90;;
72273;SDS011;60208;48.692;8.948;2023-07-20T11:37:55;1.17;;;1.08;;
72273;SDS011;60208;48.692;8.948;2023-07-20T11:40:22;1.10;;;1.00;;
72273;SDS011;60208;48.692;8.948;2023-07-20T11:42:47;1.73;;;1.02;;
72273;SDS011;60208;48.692;8.948;2023-07-20T11:45:15;4.25;;;1.13;;
72273;SDS011;60208;48.692;8.948;2023-07-20T11:47:41;1.85;;;1.10;;
72273;SDS011;60208;48.692;8.948;2023-07-20T11:50:07;4.88;;;1.17;;
72273;SDS011;60208;48.692;8.948;2023-07-20T11:52:33;2.72;;;1.25;;
72273;SDS011;60208;48.692;8.948;2023-07-20T11:55:00;2.45;;;1.10;;
72273;SDS011;60208;48.692;8.948;2023-07-20T11:57:26;1.90;;;1.00;;
72273;SDS011;60208;48.692;8.948;2023-07-20T12:00:00;1.35;;;1.10;;
72273;SDS011;60208;48.692;8.948;2023-07-20T12:02:29;1.50;;;1.00;;
72273;SDS011;60208;48.692;8.948;2023-07-20T12:04:55;1.27;;;1.10;;
72273;SDS011;60208;48.692;8.948;2023-07-20T12:07:21;3.55;;;1.25;;
72273;SDS011;60208;48.692;8.948;2023-07-20T12:12:37;1.85;;;1.10;;
72273;SDS011;60208;48.692;8.948;2023-07-20T12:15:16;2.28;;;1.17;;
72273;SDS011;60208;48.692;8.948;2023-07-20T12:17:45;1.30;;;1.00;;
72273;SDS011;60208;48.692;8.948;2023-07-20T12:20:11;2.92;;;1.10;;
72273;SDS011;60208;48.692;8.948;2023-07-20T12:22:43;1.80;;;1.00;;
72273;SDS011;60208;48.692;8.948;2023-07-20T12:27:37;1.60;;;1.10;;
72273;SDS011;60208;48.692;8.948;2023-07-20T12:30:03;2.33;;;1.25;;
72273;SDS011;60208;48.692;8.948;2023-07-20T12:32:30;2.40;;;1.20;;
72273;SDS011;60208;48.692;8.948;2023-07-20T12:34:56;1.85;;;0.90;;
72273;SDS011;60208;48.692;8.948;2023-07-20T12:37:21;3.00;;;1.10;;
72273;SDS011;60208;48.692;8.948;2023-07-20T12:39:47;2.40;;;1.00;;
72273;SDS011;60208;48.692;8.948;2023-07-20T12:42:12;2.22;;;1.00;;
72273;SDS011;60208;48.692;8.948;2023-07-20T12:44:40;2.92;;;1.00;;
72273;SDS011;60208;48.692;8.948;2023-07-20T12:47:06;1.50;;;0.80;;
72273;SDS011;60208;48.692;8.948;2023-07-20T12:49:31;3.83;;;1.20;;
72273;SDS011;60208;48.692;8.948;2023-07-20T12:51:57;1.08;;;0.98;;
72273;SDS011;60208;48.692;8.948;2023-07-20T12:54:22;1.80;;;0.87;;
72273;SDS011;60208;48.692;8.948;2023-07-20T12:56:47;1.52;;;1.00;;
72273;SDS011;60208;48.692;8.948;2023-07-20T12:59:13;6.60;;;1.20;;
72273;SDS011;60208;48.692;8.948;2023-07-20T13:01:38;1.73;;;1.00;;
72273;SDS011;60208;48.692;8.948;2023-07-20T13:04:06;4.35;;;1.00;;
72273;SDS011;60208;48.692;8.948;2023-07-20T13:06:34;4.05;;;1.25;;
72273;SDS011;60208;48.692;8.948;2023-07-20T13:08:59;2.17;;;1.27;;
72273;SDS011;60208;48.692;8.948;2023-07-20T13:11:25;1.52;;;1.10;;
72273;SDS011;60208;48.692;8.948;2023-07-20T13:13:51;11.82;;;5.03;;
72273;SDS011;60208;48.692;8.948;2023-07-20T13:16:16;4.45;;;1.70;;
72273;SDS011;60208;48.692;8.948;2023-07-20T13:18:42;1.77;;;1.50;;
72273;SDS011;60208;48.692;8.948;2023-07-20T13:21:16;1.77;;;1.43;;
72273;SDS011;60208;48.692;8.948;2023-07-20T13:23:42;3.60;;;2.40;;
72273;SDS011;60208;48.692;8.948;2023-07-20T13:26:07;4.87;;;3.63;;
72273;SDS011;60208;48.692;8.948;2023-07-20T13:28:33;6.72;;;2.47;;
72273;SDS011;60208;48.692;8.948;2023-07-20T13:30:58;4.28;;;1.48;;
72273;SDS011;60208;48.692;8.948;2023-07-20T13:33:24;1.25;;;1.10;;
72273;SDS011;60208;48.692;8.948;2023-07-20T13:35:50;1.08;;;0.90;;
72273;SDS011;60208;48.692;8.948;2023-07-20T13:38:15;2.00;;;1.20;;
72273;SDS011;60208;48.692;8.948;2023-07-20T13:40:41;2.92;;;1.30;;
72273;SDS011;60208;48.692;8.948;2023-07-20T13:43:07;2.45;;;1.05;;
72273;SDS011;60208;48.692;8.948;2023-07-20T13:45:32;1.10;;;1.00;;
72273;SDS011;60208;48.692;8.948;2023-07-20T13:47:58;1.20;;;1.10;;
72273;SDS011;60208;48.692;8.948;2023-07-20T13:50:23;2.50;;;1.30;;
72273;SDS011;60208;48.692;8.948;2023-07-20T13:52:49;2.70;;;1.20;;
72273;SDS011;60208;48.692;8.948;2023-07-20T13:55:14;3.90;;;1.10;;
72273;SDS011;60208;48.692;8.948;2023-07-20T13:57:40;2.22;;;1.23;;
72273;SDS011;60208;48.692;8.948;2023-07-20T14:00:05;1.50;;;0.90;;
72273;SDS011;60208;48.692;8.948;2023-07-20T14:02:35;2.75;;;1.60;;
72273;SDS011;60208;48.692;8.948;2023-07-20T14:05:02;3.78;;;1.25;;
72273;SDS011;60208;48.692;8.948;2023-07-20T14:07:27;9.05;;;1.40;;
72273;SDS011;60208;48.692;8.948;2023-07-20T14:09:53;7.32;;;1.15;;
72273;SDS011;60208;48.692;8.948;2023-07-20T14:12:18;8.05;;;1.20;;
72273;SDS011;60208;48.692;8.948;2023-07-20T14:14:44;4.57;;;1.40;;
72273;SDS011;60208;48.692;8.948;2023-07-20T14:17:10;2.83;;;1.17;;
72273;SDS011;60208;48.692;8.948;2023-07-20T14:19:36;1.92;;;1.30;;
72273;SDS011;60208;48.692;8.948;2023-07-20T14:22:02;3.92;;;1.10;;
72273;SDS011;60208;48.692;8.948;2023-07-20T14:24:29;2.17;;;1.20;;
72273;SDS011;60208;48.692;8.948;2023-07-20T14:26:54;2.60;;;1.10;;
72273;SDS011;60208;48.692;8.948;2023-07-20T14:29:20;3.05;;;1.10;;
72273;SDS011;60208;48.692;8.948;2023-07-20T14:31:46;1.83;;;1.10;;
72273;SDS011;60208;48.692;8.948;2023-07-20T14:34:16;4.35;;;0.93;;
72273;SDS011;60208;48.692;8.948;2023-07-20T14:36:43;1.42;;;0.93;;
72273;SDS011;60208;48.692;8.948;2023-07-20T14:39:09;1.38;;;1.00;;
72273;SDS011;60208;48.692;8.948;2023-07-20T14:41:34;3.53;;;1.10;;
72273;SDS011;60208;48.692;8.948;2023-07-20T14:44:00;2.30;;;1.48;;
72273;SDS011;60208;48.692;8.948;2023-07-20T14:46:25;3.83;;;1.10;;
72273;SDS011;60208;48.692;8.948;2023-07-20T14:48:51;3.55;;;1.20;;
72273;SDS011;60208;48.692;8.948;2023-07-20T14:51:17;1.80;;;1.10;;
72273;SDS011;60208;48.692;8.948;2023-07-20T14:53:42;2.15;;;0.90;;
72273;SDS011;60208;48.692;8.948;2023-07-20T14:56:08;1.75;;;0.95;;
72273;SDS011;60208;48.692;8.948;2023-07-20T14:58:34;2.42;;;1.30;;
72273;SDS011;60208;48.692;8.948;2023-07-20T15:00:59;3.08;;;1.10;;
72273;SDS011;60208;48.692;8.948;2023-07-20T15:03:25;0.90;;;0.85;;
72273;SDS011;60208;48.692;8.948;2023-07-20T15:05:50;1.30;;;0.97;;
72273;SDS011;60208;48.692;8.948;2023-07-20T15:08:16;1.73;;;1.00;;
72273;SDS011;60208;48.692;8.948;2023-07-20T15:10:44;4.03;;;1.20;;
72273;SDS011;60208;48.692;8.948;2023-07-20T15:13:11;1.60;;;1.00;;
72273;SDS011;60208;48.692;8.948;2023-07-20T15:15:37;2.50;;;1.10;;
72273;SDS011;60208;48.692;8.948;2023-07-20T15:18:09;1.20;;;1.10;;
72273;SDS011;60208;48.692;8.948;2023-07-20T15:20:34;2.05;;;1.10;;